Denzil, Canada
Current Conditions -  °F | °C
As of 9:00 PM on Friday 24 Oct 2014 (Local Time) from CYKY Reporting Station
Scattered Clouds Scattered Clouds  
Wind Chill:   Ceiling: Unl
Heat Index:   Visibility: 15mi
Dew Point: -3°   Wind: 3mph
Humidity: 70%   Direction: 220°SW
Pressure: 29.98"   Gusts: NA
Location:  52.23°N, 109.65°W
Report Text: CYKY 250300Z 22003KT 15SM SCT260 02/M03 A2998 RMK CI3 SLP178
Loading
Personal Weather Stations






























Interactive Weather Map
Tropical Storm Tracking
New forecast layout! Learn more

10-Day Weather Forecast

Advertisements
Track Severe Weather on mobile